createdAt,value
2018-12-26T00:00:47.224Z,2.27
2018-12-26T00:03:28.014Z,2.33
2018-12-26T00:06:08.836Z,2.50
2018-12-26T00:08:49.728Z,2.53
2018-12-26T00:11:30.449Z,2.37
2018-12-26T00:14:11.282Z,2.50
2018-12-26T00:16:51.991Z,2.70
2018-12-26T00:19:33.027Z,2.50
2018-12-26T00:22:13.926Z,2.73
2018-12-26T00:24:54.843Z,2.70
2018-12-26T00:27:35.994Z,2.47
2018-12-26T00:30:16.498Z,2.93
2018-12-26T00:32:57.010Z,2.40
2018-12-26T00:35:37.963Z,2.60
2018-12-26T00:38:18.574Z,2.73
2018-12-26T00:40:59.450Z,2.57
2018-12-26T00:43:40.214Z,2.63
2018-12-26T00:46:20.878Z,3.10
2018-12-26T00:49:01.846Z,2.60
2018-12-26T00:51:42.634Z,2.90
2018-12-26T00:54:23.473Z,2.20
2018-12-26T00:57:04.372Z,2.80
2018-12-26T00:59:45.133Z,2.40
2018-12-26T01:02:25.614Z,2.57
2018-12-26T01:05:06.284Z,2.70
2018-12-26T01:07:46.859Z,3.00
2018-12-26T01:10:27.445Z,3.10
2018-12-26T01:13:07.827Z,3.20
2018-12-26T01:15:48.635Z,3.00
2018-12-26T01:18:29.134Z,3.17
2018-12-26T01:21:09.693Z,3.03
2018-12-26T01:23:50.611Z,2.80
2018-12-26T01:26:31.651Z,3.33
2018-12-26T01:29:12.667Z,3.13
2018-12-26T01:31:53.183Z,3.33
2018-12-26T01:34:34.239Z,3.80
2018-12-26T01:37:15.215Z,3.10
2018-12-26T01:39:56.150Z,3.20
2018-12-26T01:42:36.734Z,3.27
2018-12-26T01:45:17.735Z,3.50
2018-12-26T01:47:58.335Z,3.53
2018-12-26T01:50:38.967Z,3.57
2018-12-26T01:53:19.575Z,3.13
2018-12-26T01:56:00.392Z,3.10
2018-12-26T01:58:40.906Z,3.60
2018-12-26T02:01:21.737Z,3.30
2018-12-26T02:04:02.365Z,3.07
2018-12-26T02:06:43.219Z,3.10
2018-12-26T02:09:24.242Z,3.13
2018-12-26T02:12:05.212Z,2.97
2018-12-26T02:14:45.905Z,3.23
2018-12-26T02:17:26.524Z,3.10
2018-12-26T02:20:06.869Z,3.23
2018-12-26T02:22:47.578Z,2.80
2018-12-26T02:25:28.237Z,3.37
2018-12-26T02:28:09.211Z,3.20
2018-12-26T02:30:50.038Z,2.90
2018-12-26T02:33:30.679Z,3.77
2018-12-26T02:36:11.560Z,2.97
2018-12-26T02:38:52.082Z,3.30
2018-12-26T02:41:32.376Z,3.07
2018-12-26T02:44:13.301Z,3.00
2018-12-26T02:46:53.830Z,3.43
2018-12-26T02:49:34.311Z,3.77
2018-12-26T02:52:15.057Z,3.47
2018-12-26T02:54:55.883Z,3.60
2018-12-26T02:57:36.840Z,3.83
2018-12-26T03:00:17.688Z,4.40
2018-12-26T03:02:58.410Z,3.73
2018-12-26T03:05:39.116Z,4.10
2018-12-26T03:08:19.677Z,3.97
2018-12-26T03:11:00.555Z,4.00
2018-12-26T03:13:41.378Z,4.17
2018-12-26T03:16:22.303Z,4.20
2018-12-26T03:19:03.038Z,4.03
2018-12-26T03:21:43.995Z,4.60
2018-12-26T03:24:24.731Z,4.70
2018-12-26T03:27:05.212Z,4.37
2018-12-26T03:29:45.994Z,4.30
2018-12-26T03:32:26.724Z,5.07
2018-12-26T03:35:07.360Z,4.60
2018-12-26T03:37:47.966Z,5.30
2018-12-26T03:40:28.835Z,5.50
2018-12-26T03:43:09.346Z,5.70
2018-12-26T03:45:50.378Z,6.00
2018-12-26T03:48:30.893Z,6.60
2018-12-26T03:51:11.405Z,7.27
2018-12-26T03:53:51.718Z,6.83
2018-12-26T03:56:32.123Z,7.00
2018-12-26T03:59:12.551Z,7.47
2018-12-26T04:01:53.255Z,7.73
2018-12-26T04:04:33.934Z,9.03
2018-12-26T04:07:14.658Z,9.20
2018-12-26T04:09:55.222Z,10.07
2018-12-26T04:12:36.115Z,9.87
2018-12-26T04:15:17.148Z,9.83
2018-12-26T04:17:57.887Z,10.20
2018-12-26T04:20:38.531Z,10.17
2018-12-26T04:23:19.434Z,11.10
2018-12-26T04:26:00.191Z,11.83
2018-12-26T04:28:40.966Z,11.43
2018-12-26T04:31:21.807Z,11.57
2018-12-26T04:34:02.478Z,12.87
2018-12-26T04:36:43.415Z,12.60
2018-12-26T04:39:23.886Z,13.27
2018-12-26T04:42:04.541Z,13.03
2018-12-26T04:44:45.568Z,13.60
2018-12-26T04:47:26.436Z,12.77
2018-12-26T04:50:07.285Z,13.73
2018-12-26T04:52:47.970Z,14.00
2018-12-26T04:55:28.898Z,13.30
2018-12-26T04:58:09.298Z,13.87
2018-12-26T05:00:50.177Z,12.80
2018-12-26T05:03:30.855Z,13.30
2018-12-26T05:06:11.454Z,14.13
2018-12-26T05:08:52.417Z,13.27
2018-12-26T05:11:33.253Z,12.90
2018-12-26T05:14:13.851Z,13.80
2018-12-26T05:16:54.652Z,13.40
2018-12-26T05:19:35.390Z,13.50
2018-12-26T05:22:16.292Z,12.47
2018-12-26T05:24:57.243Z,13.10
2018-12-26T05:27:38.409Z,13.83
2018-12-26T05:30:19.326Z,13.57
2018-12-26T05:32:59.870Z,12.60
2018-12-26T05:35:40.761Z,14.00
2018-12-26T05:38:22.091Z,13.50
2018-12-26T05:41:02.661Z,13.07
2018-12-26T05:43:43.502Z,13.17
2018-12-26T05:46:24.150Z,14.07
2018-12-26T05:49:05.150Z,14.03
2018-12-26T05:51:45.689Z,14.30
2018-12-26T05:54:26.258Z,13.17
2018-12-26T05:57:07.027Z,13.60
2018-12-26T05:59:47.807Z,14.17
2018-12-26T06:02:28.639Z,14.13
2018-12-26T06:05:09.450Z,14.93
2018-12-26T06:07:50.307Z,12.97
2018-12-26T06:10:30.631Z,14.43
2018-12-26T06:13:11.374Z,14.70
2018-12-26T06:15:52.279Z,15.70
2018-12-26T06:18:33.300Z,15.20
2018-12-26T06:21:13.674Z,15.70
2018-12-26T06:23:54.218Z,16.30
2018-12-26T06:26:34.818Z,15.77
2018-12-26T06:29:15.918Z,15.57
2018-12-26T06:31:56.818Z,15.90
2018-12-26T06:34:37.435Z,16.13
2018-12-26T06:37:18.355Z,16.27
2018-12-26T06:39:59.477Z,15.70
2018-12-26T06:42:40.177Z,15.97
2018-12-26T06:45:20.691Z,16.27
2018-12-26T06:48:01.390Z,15.20
2018-12-26T06:50:42.503Z,15.47
2018-12-26T06:53:23.375Z,16.03
2018-12-26T06:56:04.395Z,15.60
2018-12-26T06:58:45.290Z,15.80
2018-12-26T07:01:25.820Z,16.50
2018-12-26T07:04:06.642Z,16.53
2018-12-26T07:06:47.618Z,16.77
2018-12-26T07:09:28.526Z,15.70
2018-12-26T07:12:09.261Z,17.23
2018-12-26T07:14:50.010Z,16.83
2018-12-26T07:17:30.744Z,16.17
2018-12-26T07:20:11.310Z,17.00
2018-12-26T07:22:52.214Z,16.10
2018-12-26T07:25:33.210Z,16.67
2018-12-26T07:28:14.163Z,17.47
2018-12-26T07:30:54.875Z,15.80
2018-12-26T07:33:35.811Z,17.27
2018-12-26T07:36:16.971Z,17.00
2018-12-26T07:38:57.639Z,16.40
2018-12-26T07:41:38.155Z,16.93
2018-12-26T07:44:18.691Z,15.70
2018-12-26T07:46:59.551Z,16.83
2018-12-26T07:49:40.438Z,16.00
2018-12-26T07:52:20.848Z,14.80
2018-12-26T07:55:01.261Z,16.07
2018-12-26T07:57:42.235Z,16.30
2018-12-26T08:00:23.271Z,16.37
2018-12-26T08:03:03.683Z,16.40
2018-12-26T08:05:44.322Z,17.03
2018-12-26T08:08:24.850Z,15.57
2018-12-26T08:11:05.425Z,15.87
2018-12-26T08:13:46.867Z,16.17
2018-12-26T08:16:27.745Z,16.27
2018-12-26T08:19:08.872Z,16.73
2018-12-26T08:21:49.809Z,16.97
2018-12-26T08:24:30.835Z,16.20
2018-12-26T08:27:11.708Z,18.07
2018-12-26T08:29:52.086Z,17.33
2018-12-26T08:32:32.970Z,16.17
2018-12-26T08:35:13.777Z,16.27
2018-12-26T08:37:54.801Z,16.63
2018-12-26T08:40:35.438Z,17.47
2018-12-26T08:43:16.048Z,17.37
2018-12-26T08:45:56.726Z,17.13
2018-12-26T08:48:37.398Z,17.53
2018-12-26T08:51:18.530Z,18.23
2018-12-26T08:53:59.582Z,17.53
2018-12-26T08:56:40.282Z,17.57
2018-12-26T08:59:21.317Z,16.27
2018-12-26T09:02:01.950Z,16.07
2018-12-26T09:04:42.587Z,16.57
2018-12-26T09:07:23.126Z,16.07
2018-12-26T09:10:03.946Z,17.67
2018-12-26T09:12:44.626Z,17.53
2018-12-26T09:15:25.497Z,16.93
2018-12-26T09:18:06.570Z,17.60
2018-12-26T09:20:47.267Z,16.73
2018-12-26T09:23:28.222Z,17.23
2018-12-26T09:26:08.786Z,15.77
2018-12-26T09:28:49.530Z,14.73
2018-12-26T09:31:30.544Z,16.57
2018-12-26T09:34:11.303Z,15.43
2018-12-26T09:36:52.188Z,14.17
2018-12-26T09:39:33.104Z,13.87
2018-12-26T09:42:14.005Z,18.77
2018-12-26T09:44:54.875Z,15.13
2018-12-26T09:47:35.387Z,13.03
2018-12-26T09:50:15.893Z,13.83
2018-12-26T09:52:56.789Z,12.40
2018-12-26T09:55:37.618Z,11.07
2018-12-26T09:58:18.201Z,12.13
2018-12-26T10:00:59.091Z,13.03
2018-12-26T10:03:39.954Z,12.33
2018-12-26T10:06:20.993Z,11.37
2018-12-26T10:09:01.782Z,12.03
2018-12-26T10:11:42.799Z,11.67
2018-12-26T10:14:23.650Z,11.83
2018-12-26T10:17:04.699Z,11.57
2018-12-26T10:19:45.440Z,11.20
2018-12-26T10:22:25.876Z,9.83
2018-12-26T10:25:06.740Z,11.20
2018-12-26T10:27:47.459Z,10.67
2018-12-26T10:30:28.430Z,10.00
2018-12-26T10:33:09.089Z,10.83
2018-12-26T10:35:49.535Z,9.40
2018-12-26T10:38:30.441Z,10.33
2018-12-26T10:41:11.491Z,8.80
2018-12-26T10:43:52.347Z,9.50
2018-12-26T10:46:33.110Z,9.70
2018-12-26T10:49:14.181Z,9.50
2018-12-26T10:51:54.759Z,9.23
2018-12-26T10:54:35.483Z,9.27
2018-12-26T10:57:15.914Z,9.00
2018-12-26T10:59:56.610Z,9.30
2018-12-26T11:02:37.523Z,10.43
2018-12-26T11:05:18.138Z,9.90
2018-12-26T11:07:58.708Z,9.00
2018-12-26T11:10:39.176Z,9.47
2018-12-26T11:13:19.463Z,9.23
2018-12-26T11:16:00.145Z,9.40
2018-12-26T11:18:41.166Z,8.70
2018-12-26T11:21:22.104Z,8.53
2018-12-26T11:24:02.570Z,9.23
2018-12-26T11:26:43.582Z,10.10
2018-12-26T11:29:23.904Z,9.63
2018-12-26T11:32:04.400Z,10.33
2018-12-26T11:34:44.863Z,10.40
2018-12-26T11:37:25.544Z,10.37
2018-12-26T11:40:06.381Z,11.07
2018-12-26T11:42:46.959Z,11.03
2018-12-26T11:45:27.866Z,11.57
2018-12-26T11:48:08.780Z,11.67
2018-12-26T11:50:49.613Z,11.03
2018-12-26T11:53:30.245Z,10.93
2018-12-26T11:56:10.719Z,11.87
2018-12-26T11:58:51.453Z,11.90
2018-12-26T12:01:32.339Z,11.30
2018-12-26T12:04:13.322Z,10.87
2018-12-26T12:06:54.286Z,11.13
2018-12-26T12:09:35.296Z,11.03
2018-12-26T12:12:16.168Z,11.10
2018-12-26T12:14:56.821Z,12.60
2018-12-26T12:17:37.804Z,11.03
2018-12-26T12:20:18.708Z,12.57
2018-12-26T12:22:59.434Z,10.87
2018-12-26T12:25:40.147Z,13.40
2018-12-26T12:28:20.677Z,11.83
2018-12-26T12:31:01.293Z,13.70
2018-12-26T12:33:41.740Z,11.43
2018-12-26T12:36:22.724Z,10.87
2018-12-26T12:39:04.282Z,10.63
2018-12-26T12:41:45.150Z,10.07
2018-12-26T12:44:26.085Z,10.63
2018-12-26T12:47:06.804Z,11.27
2018-12-26T12:49:47.812Z,10.47
2018-12-26T12:52:28.980Z,10.37
2018-12-26T12:54:57.488Z,10.73
2018-12-26T12:57:26.121Z,11.97
2018-12-26T12:59:54.565Z,11.23
2018-12-26T13:02:23.100Z,11.73
2018-12-26T13:04:51.538Z,12.20
2018-12-26T13:07:19.985Z,12.63
2018-12-26T13:09:48.439Z,11.53
2018-12-26T13:12:16.906Z,12.13
2018-12-26T13:14:45.348Z,12.27
2018-12-26T13:17:13.795Z,12.83
2018-12-26T13:19:42.243Z,12.47
2018-12-26T13:22:10.673Z,13.43
2018-12-26T13:24:39.133Z,13.47
2018-12-26T13:27:07.561Z,13.67
2018-12-26T13:29:36.044Z,14.00
2018-12-26T13:32:04.478Z,14.13
2018-12-26T13:34:32.934Z,14.50
2018-12-26T13:37:01.452Z,15.03
2018-12-26T13:39:30.408Z,14.93
2018-12-26T13:41:58.925Z,15.23
2018-12-26T13:44:27.416Z,15.07
2018-12-26T13:46:55.850Z,15.30
2018-12-26T13:49:24.294Z,15.37
2018-12-26T13:51:52.734Z,15.50
2018-12-26T13:54:21.196Z,15.70
2018-12-26T13:56:50.445Z,15.67
2018-12-26T13:59:20.933Z,14.63
2018-12-26T14:01:49.066Z,15.73
2018-12-26T14:04:17.526Z,15.70
2018-12-26T14:06:45.955Z,14.97
2018-12-26T14:09:14.422Z,15.30
2018-12-26T14:11:42.868Z,15.03
2018-12-26T14:14:11.381Z,16.43
2018-12-26T14:16:39.833Z,14.70
2018-12-26T14:19:08.326Z,15.63
2018-12-26T14:21:36.789Z,14.93
2018-12-26T14:24:05.384Z,15.37
2018-12-26T14:26:33.822Z,14.53
2018-12-26T14:29:02.256Z,14.37
2018-12-26T14:31:30.717Z,14.30
2018-12-26T14:33:59.164Z,15.00
2018-12-26T14:36:27.616Z,14.63
2018-12-26T14:38:56.063Z,14.83
2018-12-26T14:41:24.517Z,14.03
2018-12-26T14:43:52.949Z,15.57
2018-12-26T14:46:21.405Z,14.53
2018-12-26T14:48:49.841Z,14.20
2018-12-26T14:51:26.212Z,14.70
2018-12-26T14:53:48.515Z,14.13
2018-12-26T14:56:16.990Z,13.23
2018-12-26T14:58:45.464Z,14.57
2018-12-26T15:01:13.930Z,14.73
2018-12-26T15:03:42.368Z,14.27
2018-12-26T15:06:10.822Z,15.23
2018-12-26T15:08:39.258Z,14.20
2018-12-26T15:11:07.707Z,15.30
2018-12-26T15:13:36.170Z,15.03
2018-12-26T15:16:04.687Z,14.23
2018-12-26T15:18:33.120Z,14.43
2018-12-26T15:21:01.574Z,13.80
2018-12-26T15:23:30.018Z,13.23
2018-12-26T15:25:58.471Z,13.73
2018-12-26T15:28:26.920Z,13.07
2018-12-26T15:30:55.385Z,12.97
2018-12-26T15:33:23.814Z,12.43
2018-12-26T15:35:52.345Z,11.80
2018-12-26T15:38:20.884Z,12.63
2018-12-26T15:40:49.359Z,13.43
2018-12-26T15:43:17.829Z,13.10
2018-12-26T15:45:46.275Z,12.37
2018-12-26T15:48:14.730Z,13.60
2018-12-26T15:50:43.182Z,12.27
2018-12-26T15:53:11.658Z,12.60
2018-12-26T15:55:40.152Z,12.50
2018-12-26T15:58:08.613Z,11.97
2018-12-26T16:00:37.763Z,13.60
2018-12-26T16:03:06.252Z,13.40
2018-12-26T16:05:34.694Z,13.27
2018-12-26T16:08:03.214Z,13.33
2018-12-26T16:10:31.653Z,13.63
2018-12-26T16:13:00.107Z,13.70
2018-12-26T16:15:28.546Z,14.20
2018-12-26T16:17:56.998Z,13.80
2018-12-26T16:20:25.449Z,14.17
2018-12-26T16:22:53.897Z,12.77
2018-12-26T16:25:22.335Z,13.97
2018-12-26T16:27:50.810Z,13.40
2018-12-26T16:30:19.270Z,14.33
2018-12-26T16:32:47.731Z,15.20
2018-12-26T16:35:16.161Z,14.83
2018-12-26T16:37:44.634Z,14.00
2018-12-26T16:40:13.085Z,14.07
2018-12-26T16:42:41.534Z,14.20
2018-12-26T16:45:09.978Z,14.10
2018-12-26T16:47:38.452Z,15.30
2018-12-26T16:50:07.917Z,13.60
2018-12-26T16:52:36.378Z,14.83
2018-12-26T16:55:05.738Z,15.27
2018-12-26T16:57:34.174Z,14.30
2018-12-26T17:00:02.634Z,14.87
2018-12-26T17:02:31.082Z,12.87
2018-12-26T17:04:59.542Z,14.30
2018-12-26T17:07:27.990Z,13.30
2018-12-26T17:09:56.428Z,12.90
2018-12-26T17:12:24.866Z,13.50
2018-12-26T17:14:53.325Z,13.40
2018-12-26T17:17:21.759Z,14.67
2018-12-26T17:19:50.215Z,14.20
2018-12-26T17:22:18.641Z,15.00
2018-12-26T17:24:47.096Z,13.80
2018-12-26T17:27:15.534Z,15.00
2018-12-26T17:29:43.978Z,14.50
2018-12-26T17:32:12.422Z,14.60
2018-12-26T17:34:40.893Z,13.63
2018-12-26T17:37:09.321Z,14.50
2018-12-26T17:39:37.866Z,15.33
2018-12-26T17:42:06.302Z,15.03
2018-12-26T17:44:34.764Z,14.70
2018-12-26T17:47:03.201Z,14.60
2018-12-26T17:49:31.689Z,14.07
2018-12-26T17:52:00.133Z,13.23
2018-12-26T17:54:29.806Z,13.63
2018-12-26T17:56:58.288Z,14.57
2018-12-26T17:59:35.509Z,13.67
2018-12-26T18:02:09.598Z,12.57
2018-12-26T18:04:38.040Z,13.13
2018-12-26T18:07:06.494Z,14.47
2018-12-26T18:09:34.925Z,15.70
2018-12-26T18:12:11.845Z,17.40
2018-12-26T18:14:33.548Z,18.03
2018-12-26T18:17:02.025Z,17.23
2018-12-26T18:19:30.519Z,17.37
2018-12-26T18:21:58.981Z,17.20
2018-12-26T18:24:27.427Z,16.10
2018-12-26T18:26:55.870Z,15.73
2018-12-26T18:29:24.322Z,15.27
2018-12-26T18:31:52.781Z,16.40
2018-12-26T18:34:21.221Z,17.57
2018-12-26T18:36:49.670Z,17.60
2018-12-26T18:39:18.111Z,19.63
2018-12-26T18:41:46.576Z,19.27
2018-12-26T18:44:15.010Z,19.33
2018-12-26T18:46:43.467Z,19.23
2018-12-26T18:49:11.918Z,25.03
2018-12-26T18:51:40.382Z,22.43
2018-12-26T18:54:08.822Z,22.90
2018-12-26T18:56:38.434Z,24.87
2018-12-26T18:59:06.983Z,24.87
2018-12-26T19:01:35.427Z,26.30
2018-12-26T19:04:03.896Z,27.53
2018-12-26T19:06:32.390Z,26.77
2018-12-26T19:09:00.868Z,31.40
2018-12-26T19:11:29.319Z,29.13
2018-12-26T19:13:57.776Z,32.93
2018-12-26T19:16:26.220Z,32.47
2018-12-26T19:18:54.907Z,29.53
2018-12-26T19:21:23.401Z,33.07
2018-12-26T19:23:51.858Z,33.80
2018-12-26T19:26:20.313Z,32.90
2018-12-26T19:28:48.934Z,34.03
2018-12-26T19:31:17.382Z,36.60
2018-12-26T19:33:45.836Z,34.77
2018-12-26T19:36:14.397Z,33.80
2018-12-26T19:38:42.869Z,35.47
2018-12-26T19:41:11.314Z,34.83
2018-12-26T19:43:39.777Z,35.43
2018-12-26T19:46:08.213Z,36.53
2018-12-26T19:48:36.702Z,36.37
2018-12-26T19:51:05.138Z,37.73
2018-12-26T19:53:33.590Z,35.07
2018-12-26T19:56:02.029Z,34.73
2018-12-26T19:58:30.497Z,34.30
2018-12-26T20:00:59.001Z,36.20
2018-12-26T20:03:27.473Z,35.20
2018-12-26T20:05:55.905Z,34.47
2018-12-26T20:08:24.362Z,37.33
2018-12-26T20:10:52.801Z,37.13
2018-12-26T20:13:21.282Z,35.73
2018-12-26T20:15:49.782Z,37.00
2018-12-26T20:18:18.241Z,35.17
2018-12-26T20:20:46.690Z,34.57
2018-12-26T20:23:15.176Z,37.47
2018-12-26T20:25:43.620Z,36.73
2018-12-26T20:28:12.049Z,36.60
2018-12-26T20:30:40.511Z,38.30
2018-12-26T20:33:08.941Z,39.33
2018-12-26T20:35:37.421Z,40.20
2018-12-26T20:38:05.870Z,38.20
2018-12-26T20:40:34.322Z,40.77
2018-12-26T20:43:02.768Z,41.60
2018-12-26T20:45:31.227Z,40.73
2018-12-26T20:47:59.726Z,41.40
2018-12-26T20:50:28.194Z,40.33
2018-12-26T20:52:56.643Z,38.80
2018-12-26T20:55:25.100Z,41.00
2018-12-26T20:57:53.534Z,39.83
2018-12-26T21:00:21.986Z,38.73
2018-12-26T21:02:50.430Z,38.00
2018-12-26T21:05:18.898Z,41.53
2018-12-26T21:07:47.349Z,41.03
2018-12-26T21:10:15.802Z,41.27
2018-12-26T21:12:44.268Z,40.50
2018-12-26T21:15:12.798Z,39.37
2018-12-26T21:17:41.229Z,38.83
2018-12-26T21:20:09.697Z,40.27
2018-12-26T21:22:38.203Z,39.60
2018-12-26T21:25:07.507Z,40.83
2018-12-26T21:27:35.950Z,40.13
2018-12-26T21:30:07.690Z,38.47
2018-12-26T21:32:36.213Z,39.93
2018-12-26T21:35:05.249Z,40.23
2018-12-26T21:37:33.718Z,41.93
2018-12-26T21:40:02.210Z,40.13
2018-12-26T21:42:30.662Z,39.67
2018-12-26T21:44:59.098Z,40.60
2018-12-26T21:47:27.553Z,38.87
2018-12-26T21:49:55.988Z,39.90
2018-12-26T21:52:24.449Z,40.60
2018-12-26T21:54:52.885Z,39.97
2018-12-26T21:57:21.346Z,40.20
2018-12-26T21:59:49.809Z,38.30
2018-12-26T22:02:22.456Z,39.37
2018-12-26T22:04:48.474Z,36.57
2018-12-26T22:07:16.944Z,38.17
2018-12-26T22:09:45.380Z,36.97
2018-12-26T22:12:13.836Z,37.03
2018-12-26T22:14:42.282Z,35.53
2018-12-26T22:17:10.748Z,34.93
2018-12-26T22:19:39.187Z,33.80
2018-12-26T22:22:07.655Z,31.90
2018-12-26T22:24:36.083Z,34.23
2018-12-26T22:27:04.547Z,34.80
2018-12-26T22:29:32.985Z,32.50
2018-12-26T22:32:01.439Z,33.33
2018-12-26T22:34:29.877Z,33.43
2018-12-26T22:36:58.334Z,30.43
2018-12-26T22:39:26.774Z,27.70
2018-12-26T22:41:55.218Z,26.40
2018-12-26T22:44:27.743Z,26.33
2018-12-26T22:46:53.829Z,27.37
2018-12-26T22:49:22.288Z,27.00
2018-12-26T22:51:50.742Z,26.03
2018-12-26T22:54:19.208Z,25.00
2018-12-26T22:56:47.644Z,24.87
2018-12-26T22:59:16.089Z,24.97
2018-12-26T23:01:44.554Z,27.90
2018-12-26T23:04:13.050Z,27.80
2018-12-26T23:06:41.497Z,27.03
2018-12-26T23:09:09.937Z,27.83
2018-12-26T23:11:38.370Z,27.83
2018-12-26T23:14:06.820Z,26.63
2018-12-26T23:16:35.258Z,27.77
2018-12-26T23:19:03.732Z,28.03
2018-12-26T23:21:32.183Z,27.10
2018-12-26T23:24:00.629Z,28.20
2018-12-26T23:26:29.074Z,27.87
2018-12-26T23:28:57.567Z,27.37
2018-12-26T23:31:26.006Z,27.53
2018-12-26T23:33:54.457Z,27.10
2018-12-26T23:36:22.889Z,28.67
2018-12-26T23:38:51.325Z,27.67
2018-12-26T23:41:19.785Z,26.23
2018-12-26T23:43:48.226Z,25.90
2018-12-26T23:46:16.671Z,26.33
2018-12-26T23:48:45.109Z,24.97
2018-12-26T23:51:13.574Z,25.13
2018-12-26T23:53:42.020Z,25.13
2018-12-26T23:56:10.489Z,25.03
2018-12-26T23:58:38.925Z,24.53
